createdAt,value
2018-04-18T00:02:04.392Z,75.20
2018-04-18T00:04:32.190Z,75.50
2018-04-18T00:06:59.428Z,75.40
2018-04-18T00:09:26.517Z,75.80
2018-04-18T00:11:53.532Z,76.00
2018-04-18T00:14:20.577Z,75.60
2018-04-18T00:16:47.600Z,75.90
2018-04-18T00:19:15.384Z,76.30
2018-04-18T00:21:42.440Z,76.30
2018-04-18T00:24:09.455Z,76.40
2018-04-18T00:26:37.475Z,76.30
2018-04-18T00:29:05.278Z,76.40
2018-04-18T00:31:32.286Z,76.20
2018-04-18T00:33:59.312Z,76.10
2018-04-18T00:36:26.325Z,76.30
2018-04-18T00:38:53.382Z,76.00
2018-04-18T00:41:20.712Z,75.70
2018-04-18T00:43:47.817Z,75.80
2018-04-18T00:46:15.555Z,75.40
2018-04-18T00:48:43.324Z,76.00
2018-04-18T00:51:11.067Z,75.80
2018-04-18T00:53:38.541Z,75.80
2018-04-18T00:56:05.629Z,76.00
2018-04-18T00:58:32.648Z,76.00
2018-04-18T01:01:00.407Z,76.10
2018-04-18T01:03:28.161Z,76.60
2018-04-18T01:05:55.229Z,76.60
2018-04-18T01:08:22.256Z,76.60
2018-04-18T01:10:50.020Z,76.70
2018-04-18T01:13:17.767Z,77.00
2018-04-18T01:15:44.799Z,76.90
2018-04-18T01:18:11.844Z,76.80
2018-04-18T01:20:38.858Z,76.50
2018-04-18T01:23:05.889Z,77.10
2018-04-18T01:25:32.922Z,77.00
2018-04-18T01:27:59.977Z,76.50
2018-04-18T01:30:27.759Z,76.80
2018-04-18T01:32:54.799Z,76.70
2018-04-18T01:35:21.816Z,76.40
2018-04-18T01:37:48.819Z,76.60
2018-04-18T01:40:15.844Z,76.90
2018-04-18T01:42:42.857Z,76.50
2018-04-18T01:45:09.904Z,76.60
2018-04-18T01:47:36.930Z,76.60
2018-04-18T01:50:03.978Z,76.70
2018-04-18T01:52:31.019Z,76.40
2018-04-18T01:54:58.048Z,76.70
2018-04-18T01:57:25.063Z,76.80
2018-04-18T01:59:52.809Z,77.00
2018-04-18T02:02:19.862Z,76.90
2018-04-18T02:04:47.653Z,77.10
2018-04-18T02:07:14.668Z,77.00
2018-04-18T02:09:42.444Z,77.90
2018-04-18T02:12:10.196Z,77.50
2018-04-18T02:14:37.244Z,77.50
2018-04-18T02:17:04.284Z,76.90
2018-04-18T02:19:32.070Z,77.40
2018-04-18T02:21:59.832Z,78.80
2018-04-18T02:24:27.587Z,78.80
2018-04-18T02:26:55.033Z,78.80
2018-04-18T02:29:22.103Z,78.80
2018-04-18T02:31:49.879Z,78.80
2018-04-18T02:34:17.852Z,78.40
2018-04-18T02:36:45.122Z,78.50
2018-04-18T02:39:12.216Z,78.50
2018-04-18T02:41:39.275Z,78.40
2018-04-18T02:44:07.024Z,78.70
2018-04-18T02:46:34.283Z,78.60
2018-04-18T02:49:01.359Z,78.40
2018-04-18T02:51:29.141Z,79.40
2018-04-18T02:53:56.200Z,79.40
2018-04-18T02:56:23.228Z,79.00
2018-04-18T02:58:51.005Z,79.10
2018-04-18T03:01:18.042Z,79.10
2018-04-18T03:03:45.080Z,79.10
2018-04-18T03:06:12.131Z,79.30
2018-04-18T03:08:39.137Z,79.00
2018-04-18T03:11:06.149Z,78.80
2018-04-18T03:13:33.161Z,79.30
2018-04-18T03:16:00.920Z,79.20
2018-04-18T03:18:28.685Z,79.20
2018-04-18T03:20:56.461Z,78.90
2018-04-18T03:23:24.220Z,78.80
2018-04-18T03:25:51.990Z,79.10
2018-04-18T03:28:19.727Z,79.00
2018-04-18T03:30:47.546Z,80.00
2018-04-18T03:33:14.576Z,79.10
2018-04-18T03:35:41.588Z,78.90
2018-04-18T03:38:09.349Z,78.90
2018-04-18T03:40:36.356Z,78.80
2018-04-18T03:43:03.528Z,79.30
2018-04-18T03:45:30.539Z,79.10
2018-04-18T03:47:57.617Z,79.50
2018-04-18T03:50:24.649Z,78.80
2018-04-18T03:52:51.646Z,79.00
2018-04-18T03:55:19.408Z,79.00
2018-04-18T03:57:47.159Z,79.00
2018-04-18T04:00:14.185Z,79.00
2018-04-18T04:02:41.217Z,78.70
2018-04-18T04:05:08.232Z,78.70
2018-04-18T04:07:35.964Z,79.70
2018-04-18T04:10:03.034Z,79.10
2018-04-18T04:12:30.800Z,78.70
2018-04-18T04:14:58.055Z,78.70
2018-04-18T04:17:43.619Z,79.10
2018-04-18T04:20:29.148Z,78.70
2018-04-18T04:23:14.763Z,79.00
2018-04-18T04:25:42.654Z,79.50
2018-04-18T04:28:11.680Z,79.10
2018-04-18T04:30:38.704Z,79.10
2018-04-18T04:33:06.498Z,79.00
2018-04-18T04:35:34.308Z,79.90
2018-04-18T04:38:01.369Z,79.90
2018-04-18T04:40:29.308Z,79.50
2018-04-18T04:42:56.437Z,79.40
2018-04-18T04:45:23.924Z,79.50
2018-04-18T04:47:50.936Z,79.80
2018-04-18T04:50:18.155Z,79.50
2018-04-18T04:52:45.222Z,79.80
2018-04-18T04:55:13.000Z,79.80
2018-04-18T04:57:40.016Z,79.80
2018-04-18T05:00:07.052Z,80.00
2018-04-18T05:02:34.861Z,80.00
2018-04-18T05:05:01.843Z,80.00
2018-04-18T05:07:29.072Z,79.20
2018-04-18T05:09:56.112Z,79.60
2018-04-18T05:12:23.132Z,79.30
2018-04-18T05:14:50.893Z,78.90
2018-04-18T05:17:18.624Z,79.30
2018-04-18T05:19:45.651Z,79.30
2018-04-18T05:22:12.845Z,78.90
2018-04-18T05:24:40.695Z,80.00
2018-04-18T05:27:07.708Z,80.00
2018-04-18T05:29:34.754Z,79.90
2018-04-18T05:32:01.800Z,78.50
2018-04-18T05:34:28.808Z,78.60
2018-04-18T05:36:56.544Z,78.90
2018-04-18T05:39:23.556Z,78.90
2018-04-18T05:41:50.565Z,77.90
2018-04-18T05:44:18.324Z,78.60
2018-04-18T05:46:46.064Z,78.20
2018-04-18T05:49:13.071Z,78.10
2018-04-18T05:51:40.096Z,78.30
2018-04-18T05:54:07.846Z,77.00
2018-04-18T05:56:35.072Z,77.00
2018-04-18T05:59:02.147Z,77.30
2018-04-18T06:01:29.907Z,77.70
2018-04-18T06:03:57.030Z,77.70
2018-04-18T06:06:24.807Z,77.60
2018-04-18T06:08:51.922Z,77.60
2018-04-18T06:11:19.713Z,78.30
2018-04-18T06:13:46.806Z,78.30
2018-04-18T06:16:13.994Z,77.90
2018-04-18T06:18:41.032Z,77.70
2018-04-18T06:21:08.183Z,77.40
2018-04-18T06:23:35.320Z,78.20
2018-04-18T06:26:02.477Z,77.70
2018-04-18T06:28:29.567Z,77.10
2018-04-18T06:30:56.678Z,77.00
2018-04-18T06:33:23.724Z,76.70
2018-04-18T06:35:50.883Z,76.40
2018-04-18T06:38:18.046Z,76.30
2018-04-18T06:40:45.956Z,76.30
2018-04-18T06:43:13.125Z,76.30
2018-04-18T06:45:40.208Z,75.80
2018-04-18T06:48:07.338Z,75.00
2018-04-18T06:50:35.135Z,76.10
2018-04-18T06:53:02.227Z,76.00
2018-04-18T06:55:29.280Z,75.90
2018-04-18T06:57:56.400Z,75.70
2018-04-18T07:00:23.585Z,75.70
2018-04-18T07:02:51.563Z,75.30
2018-04-18T07:05:18.770Z,75.30
2018-04-18T07:07:46.005Z,75.10
2018-04-18T07:10:13.799Z,75.30
2018-04-18T07:12:41.864Z,74.30
2018-04-18T07:15:09.184Z,74.30
2018-04-18T07:17:36.268Z,74.80
2018-04-18T07:20:03.411Z,74.40
2018-04-18T07:22:30.558Z,74.30
2018-04-18T07:24:57.749Z,73.70
2018-04-18T07:27:25.720Z,73.50
2018-04-18T07:29:52.817Z,73.40
2018-04-18T07:32:19.913Z,73.40
2018-04-18T07:34:46.998Z,72.40
2018-04-18T07:37:14.110Z,72.90
2018-04-18T07:39:41.913Z,71.70
2018-04-18T07:42:09.544Z,71.60
2018-04-18T07:44:37.055Z,70.90
2018-04-18T07:47:05.155Z,70.80
2018-04-18T07:49:32.438Z,70.80
2018-04-18T07:52:00.273Z,68.20
2018-04-18T07:54:28.153Z,68.30
2018-04-18T07:56:55.319Z,68.20
2018-04-18T07:59:22.513Z,68.30
2018-04-18T08:01:50.458Z,67.40
2018-04-18T08:04:18.573Z,67.60
2018-04-18T08:06:45.808Z,67.60
2018-04-18T08:09:13.009Z,68.00
2018-04-18T08:11:40.270Z,67.20
2018-04-18T08:14:07.615Z,67.40
2018-04-18T08:16:34.729Z,66.00
2018-04-18T08:19:01.915Z,65.60
2018-04-18T08:21:29.829Z,64.40
2018-04-18T08:23:57.189Z,64.30
2018-04-18T08:26:24.441Z,63.50
2018-04-18T08:28:51.664Z,64.90
2018-04-18T08:31:18.905Z,62.70
2018-04-18T08:33:46.875Z,64.10
2018-04-18T08:36:14.806Z,62.10
2018-04-18T08:38:42.060Z,62.10
2018-04-18T08:41:09.298Z,61.60
2018-04-18T08:43:36.444Z,61.60
2018-04-18T08:46:04.326Z,60.80
2018-04-18T08:48:31.392Z,60.60
2018-04-18T08:50:58.530Z,62.90
2018-04-18T08:53:25.606Z,63.00
2018-04-18T08:55:52.729Z,62.70
2018-04-18T08:58:19.905Z,61.20
2018-04-18T09:00:47.787Z,59.00
2018-04-18T09:03:14.940Z,58.80
2018-04-18T09:05:42.957Z,57.90
2018-04-18T09:08:10.088Z,57.80
2018-04-18T09:10:37.135Z,58.50
2018-04-18T09:13:05.025Z,58.00
2018-04-18T09:15:32.084Z,58.00
2018-04-18T09:17:59.181Z,56.70
2018-04-18T09:20:26.229Z,55.40
2018-04-18T09:22:53.328Z,54.70
2018-04-18T09:25:20.376Z,54.30
2018-04-18T09:27:47.707Z,54.50
2018-04-18T09:30:14.759Z,55.00
2018-04-18T09:32:41.882Z,54.50
2018-04-18T09:35:08.936Z,53.90
2018-04-18T09:37:36.943Z,54.20
2018-04-18T09:40:05.039Z,55.40
2018-04-18T09:42:32.182Z,54.80
2018-04-18T09:44:59.977Z,52.50
2018-04-18T09:47:27.249Z,52.40
2018-04-18T09:49:54.501Z,54.00
2018-04-18T09:52:23.164Z,52.80
2018-04-18T09:54:50.521Z,51.60
2018-04-18T09:57:17.885Z,53.40
2018-04-18T09:59:45.154Z,51.30
2018-04-18T10:02:17.377Z,51.40
2018-04-18T10:07:18.625Z,50.10
2018-04-18T10:09:45.877Z,50.20
2018-04-18T10:12:13.173Z,48.90
2018-04-18T10:14:40.374Z,47.80
2018-04-18T10:17:07.746Z,47.60
2018-04-18T10:19:34.927Z,47.60
2018-04-18T10:22:02.969Z,45.70
2018-04-18T10:24:30.980Z,44.60
2018-04-18T10:26:58.330Z,44.60
2018-04-18T10:29:25.550Z,45.50
2018-04-18T10:31:52.712Z,45.80
2018-04-18T10:34:20.876Z,43.40
2018-04-18T10:36:48.103Z,43.40
2018-04-18T10:39:16.204Z,43.80
2018-04-18T10:41:43.495Z,43.80
2018-04-18T10:44:11.516Z,42.80
2018-04-18T10:46:38.830Z,42.60
2018-04-18T10:49:06.125Z,42.80
2018-04-18T10:51:33.262Z,41.70
2018-04-18T10:54:01.440Z,41.90
2018-04-18T10:56:29.529Z,40.60
2018-04-18T10:58:57.032Z,40.60
2018-04-18T11:01:24.287Z,40.30
2018-04-18T11:03:51.536Z,43.80
2018-04-18T11:06:18.952Z,40.50
2018-04-18T11:08:46.950Z,40.90
2018-04-18T11:11:14.159Z,39.40
2018-04-18T11:13:41.371Z,39.30
2018-04-18T11:16:09.585Z,39.00
2018-04-18T11:18:36.929Z,39.00
2018-04-18T11:21:04.289Z,41.20
2018-04-18T11:23:31.480Z,40.80
2018-04-18T11:25:58.912Z,41.60
2018-04-18T11:28:26.118Z,39.70
2018-04-18T11:30:53.489Z,39.00
2018-04-18T11:33:20.850Z,37.60
2018-04-18T11:35:48.112Z,39.00
2018-04-18T11:38:15.338Z,39.70
2018-04-18T11:40:43.217Z,36.90
2018-04-18T11:43:10.285Z,36.80
2018-04-18T11:45:37.424Z,35.30
2018-04-18T11:48:04.898Z,38.00
2018-04-18T11:50:32.298Z,38.50
2018-04-18T11:52:59.666Z,37.30
2018-04-18T11:55:27.571Z,34.50
2018-04-18T11:57:55.010Z,34.50
2018-04-18T12:00:22.938Z,35.30
2018-04-18T12:02:50.089Z,35.30
2018-04-18T12:05:17.267Z,35.20
2018-04-18T12:07:45.069Z,34.00
2018-04-18T12:10:12.150Z,34.00
2018-04-18T12:12:39.247Z,33.20
2018-04-18T12:15:06.272Z,32.50
2018-04-18T12:17:34.213Z,33.50
2018-04-18T12:20:01.433Z,33.40
2018-04-18T12:22:29.181Z,30.90
2018-04-18T12:24:56.397Z,30.90
2018-04-18T12:27:23.791Z,31.30
2018-04-18T12:29:51.009Z,30.30
2018-04-18T12:32:18.180Z,31.80
2018-04-18T12:34:45.304Z,30.60
2018-04-18T12:37:12.361Z,30.70
2018-04-18T12:39:39.435Z,30.30
2018-04-18T12:42:06.605Z,31.50
2018-04-18T12:44:33.733Z,32.10
2018-04-18T12:47:00.938Z,31.80
2018-04-18T12:49:29.006Z,32.20
2018-04-18T12:51:56.908Z,31.10
2018-04-18T12:54:24.132Z,31.00
2018-04-18T12:56:51.414Z,30.90
2018-04-18T12:59:18.669Z,30.10
2018-04-18T13:01:45.912Z,32.80
2018-04-18T13:04:13.148Z,30.90
2018-04-18T13:06:40.349Z,31.30
2018-04-18T13:09:07.405Z,29.80
2018-04-18T13:11:35.128Z,29.10
2018-04-18T13:14:02.293Z,29.10
2018-04-18T13:16:30.065Z,30.00
2018-04-18T13:18:58.331Z,29.40
2018-04-18T13:21:26.240Z,29.90
2018-04-18T13:23:54.494Z,31.30
2018-04-18T13:26:23.674Z,30.90
2018-04-18T13:28:51.539Z,29.00
2018-04-18T13:31:18.697Z,29.00
2018-04-18T13:33:45.907Z,30.00
2018-04-18T13:36:13.884Z,29.40
2018-04-18T13:38:41.074Z,29.40
2018-04-18T13:41:08.143Z,30.40
2018-04-18T13:43:35.144Z,29.00
2018-04-18T13:46:02.148Z,29.00
2018-04-18T13:48:29.168Z,27.90
2018-04-18T13:50:56.249Z,27.60
2018-04-18T13:53:23.268Z,27.60
2018-04-18T13:55:50.415Z,27.90
2018-04-18T13:58:17.501Z,29.60
2018-04-18T14:00:44.709Z,27.60
2018-04-18T14:03:11.916Z,28.90
2018-04-18T14:05:39.140Z,27.00
2018-04-18T14:08:06.473Z,29.80
2018-04-18T14:10:33.689Z,29.20
2018-04-18T14:13:01.699Z,27.90
2018-04-18T14:15:30.297Z,27.80
2018-04-18T14:17:57.417Z,27.70
2018-04-18T14:20:25.270Z,28.40
2018-04-18T14:22:52.473Z,28.40
2018-04-18T14:25:19.683Z,28.40
2018-04-18T14:27:46.985Z,28.70
2018-04-18T14:30:14.988Z,30.10
2018-04-18T14:32:43.156Z,30.10
2018-04-18T14:35:10.173Z,30.70
2018-04-18T14:37:37.373Z,29.80
2018-04-18T14:40:04.463Z,29.40
2018-04-18T14:42:32.596Z,28.40
2018-04-18T14:45:00.789Z,28.40
2018-04-18T14:47:29.322Z,29.00
2018-04-18T14:49:57.058Z,29.00
2018-04-18T14:52:24.244Z,28.50
2018-04-18T14:54:53.795Z,29.00
2018-04-18T14:57:20.870Z,29.00
2018-04-18T14:59:52.108Z,29.40
2018-04-18T15:02:19.922Z,28.50
2018-04-18T15:04:46.938Z,28.70
2018-04-18T15:07:13.970Z,28.30
2018-04-18T15:09:41.119Z,29.50
2018-04-18T15:12:08.281Z,28.20
2018-04-18T15:14:35.419Z,29.40
2018-04-18T15:17:04.958Z,30.10
2018-04-18T15:19:31.984Z,29.30
2018-04-18T15:21:59.124Z,30.20
2018-04-18T15:24:26.186Z,31.10
2018-04-18T15:26:53.956Z,30.10
2018-04-18T15:29:20.963Z,30.10
2018-04-18T15:31:48.720Z,30.90
2018-04-18T15:34:15.924Z,30.90
2018-04-18T15:36:43.704Z,30.30
2018-04-18T15:39:11.465Z,30.10
2018-04-18T15:41:38.508Z,30.10
2018-04-18T15:44:05.536Z,30.10
2018-04-18T15:46:32.592Z,30.00
2018-04-18T15:48:59.653Z,30.90
2018-04-18T15:51:26.648Z,30.40
2018-04-18T15:53:53.857Z,30.60
2018-04-18T15:56:21.703Z,29.80
2018-04-18T15:58:53.459Z,33.70
2018-04-18T16:01:28.849Z,30.10
2018-04-18T16:03:56.805Z,30.10
2018-04-18T16:06:23.938Z,32.80
2018-04-18T16:08:51.024Z,32.60
2018-04-18T16:11:18.769Z,32.50
2018-04-18T16:13:46.623Z,33.10
2018-04-18T16:16:13.978Z,33.40
2018-04-18T16:18:42.344Z,34.20
2018-04-18T16:21:13.349Z,34.90
2018-04-18T16:23:46.801Z,33.30
2018-04-18T16:26:13.962Z,32.10
2018-04-18T16:28:45.587Z,33.50
2018-04-18T16:31:13.452Z,32.10
2018-04-18T16:33:49.783Z,32.20
2018-04-18T16:36:17.771Z,32.10
2018-04-18T16:38:52.327Z,32.00
2018-04-18T16:41:20.515Z,32.70
2018-04-18T16:43:48.558Z,31.60
2018-04-18T16:46:17.839Z,30.70
2018-04-18T16:48:47.449Z,30.30
2018-04-18T16:51:16.840Z,31.50
2018-04-18T16:53:43.976Z,32.10
2018-04-18T16:56:11.101Z,32.00
2018-04-18T16:58:39.102Z,32.30
2018-04-18T17:01:06.172Z,32.00
2018-04-18T17:03:33.364Z,33.00
2018-04-18T17:06:00.594Z,33.00
2018-04-18T17:08:27.681Z,33.40
2018-04-18T17:10:54.681Z,34.90
2018-04-18T17:13:22.444Z,36.40
2018-04-18T17:15:49.509Z,36.40
2018-04-18T17:18:16.555Z,36.40
2018-04-18T17:20:43.580Z,37.40
2018-04-18T17:23:11.360Z,36.20
2018-04-18T17:25:39.297Z,37.50
2018-04-18T17:28:06.316Z,37.50
2018-04-18T17:30:33.320Z,37.70
2018-04-18T17:33:01.089Z,39.60
2018-04-18T17:35:28.899Z,40.60
2018-04-18T17:37:56.080Z,40.60
2018-04-18T17:40:24.122Z,41.60
2018-04-18T17:42:51.345Z,42.40
2018-04-18T17:45:18.455Z,42.80
2018-04-18T17:47:45.499Z,43.20
2018-04-18T17:50:12.561Z,44.20
2018-04-18T17:52:39.557Z,45.10
2018-04-18T17:55:06.578Z,45.60
2018-04-18T17:57:33.613Z,45.90
2018-04-18T18:00:00.620Z,45.60
2018-04-18T18:02:27.649Z,45.80
2018-04-18T18:04:54.720Z,45.80
2018-04-18T18:07:21.732Z,45.40
2018-04-18T18:09:48.764Z,45.90
2018-04-18T18:12:15.788Z,46.70
2018-04-18T18:14:42.807Z,47.20
2018-04-18T18:17:09.824Z,48.30
2018-04-18T18:19:36.877Z,48.00
2018-04-18T18:22:03.975Z,48.10
2018-04-18T18:24:31.059Z,48.80
2018-04-18T18:26:58.161Z,49.20
2018-04-18T18:29:25.199Z,49.90
2018-04-18T18:31:52.217Z,49.90
2018-04-18T18:34:19.450Z,49.70
2018-04-18T18:36:46.512Z,49.50
2018-04-18T18:39:13.566Z,49.50
2018-04-18T18:41:40.555Z,50.30
2018-04-18T18:44:07.595Z,49.70
2018-04-18T18:46:34.607Z,50.60
2018-04-18T18:49:01.617Z,50.90
2018-04-18T18:51:28.646Z,51.20
2018-04-18T18:53:55.690Z,51.30
2018-04-18T18:56:22.921Z,51.70
2018-04-18T18:58:49.999Z,51.80
2018-04-18T19:01:17.058Z,51.70
2018-04-18T19:03:44.832Z,52.70
2018-04-18T19:06:11.816Z,52.00
2018-04-18T19:08:38.873Z,52.80
2018-04-18T19:11:05.918Z,52.60
2018-04-18T19:13:32.945Z,53.20
2018-04-18T19:15:59.944Z,52.90
2018-04-18T19:18:27.726Z,53.50
2018-04-18T19:20:54.705Z,53.40
2018-04-18T19:23:21.719Z,54.20
2018-04-18T19:25:48.790Z,54.40
2018-04-18T19:28:15.930Z,54.80
2018-04-18T19:30:43.104Z,55.50
2018-04-18T19:33:10.124Z,55.90
2018-04-18T19:35:37.145Z,55.90
2018-04-18T19:38:04.193Z,55.80
2018-04-18T19:40:31.968Z,55.70
2018-04-18T19:42:59.973Z,55.60
2018-04-18T19:45:27.017Z,55.60
2018-04-18T19:47:54.037Z,56.40
2018-04-18T19:50:21.801Z,55.60
2018-04-18T19:52:48.798Z,55.50
2018-04-18T19:55:15.825Z,56.60
2018-04-18T19:57:42.842Z,56.90
2018-04-18T20:00:09.903Z,57.20
2018-04-18T20:02:38.705Z,57.50
2018-04-18T20:05:05.769Z,57.60
2018-04-18T20:07:32.840Z,57.50
2018-04-18T20:10:00.872Z,57.80
2018-04-18T20:12:27.861Z,57.90
2018-04-18T20:14:55.637Z,58.20
2018-04-18T20:17:23.407Z,58.70
2018-04-18T20:19:50.409Z,58.10
2018-04-18T20:22:17.418Z,58.70
2018-04-18T20:24:44.451Z,58.70
2018-04-18T20:27:12.247Z,59.20
2018-04-18T20:29:39.428Z,59.20
2018-04-18T20:32:06.445Z,59.40
2018-04-18T20:34:33.508Z,59.30
2018-04-18T20:37:00.797Z,59.30
2018-04-18T20:39:27.812Z,59.10
2018-04-18T20:41:54.912Z,59.30
2018-04-18T20:44:22.687Z,59.30
2018-04-18T20:46:49.743Z,59.20
2018-04-18T20:49:17.025Z,59.40
2018-04-18T20:51:44.209Z,59.50
2018-04-18T20:54:12.041Z,59.30
2018-04-18T20:56:40.388Z,59.30
2018-04-18T20:59:07.551Z,59.10
2018-04-18T21:01:34.627Z,59.50
2018-04-18T21:04:02.000Z,59.60
2018-04-18T21:06:29.123Z,59.90
2018-04-18T21:08:57.161Z,60.30
2018-04-18T21:11:24.250Z,60.30
2018-04-18T21:13:51.264Z,60.50
2018-04-18T21:16:18.283Z,60.20
2018-04-18T21:18:45.552Z,60.70
2018-04-18T21:21:13.336Z,60.90
2018-04-18T21:23:40.356Z,60.70
2018-04-18T21:26:08.320Z,60.80
2018-04-18T21:28:35.505Z,60.70
2018-04-18T21:31:02.785Z,61.20
2018-04-18T21:33:29.782Z,61.20
2018-04-18T21:35:56.791Z,61.10
2018-04-18T21:38:23.819Z,61.90
2018-04-18T21:40:50.837Z,61.90
2018-04-18T21:43:17.865Z,62.40
2018-04-18T21:45:44.856Z,62.70
2018-04-18T21:48:11.863Z,62.60
2018-04-18T21:50:38.877Z,62.70
2018-04-18T21:53:05.877Z,62.80
2018-04-18T21:55:32.880Z,63.00
2018-04-18T21:57:59.880Z,63.40
2018-04-18T22:00:26.913Z,63.30
2018-04-18T22:02:53.944Z,63.60
2018-04-18T22:05:21.000Z,63.80
2018-04-18T22:07:48.817Z,63.80
2018-04-18T22:10:16.079Z,63.80
2018-04-18T22:12:43.831Z,63.80
2018-04-18T22:15:10.840Z,64.00
2018-04-18T22:17:37.882Z,63.70
2018-04-18T22:20:05.615Z,63.70
2018-04-18T22:22:33.372Z,64.10
2018-04-18T22:25:00.350Z,64.10
2018-04-18T22:27:27.368Z,64.40
2018-04-18T22:29:54.370Z,64.00
2018-04-18T22:32:21.379Z,64.10
2018-04-18T22:34:48.396Z,64.50
2018-04-18T22:37:15.412Z,65.20
2018-04-18T22:39:42.440Z,64.90
2018-04-18T22:42:09.449Z,64.40
2018-04-18T22:44:37.204Z,63.40
2018-04-18T22:47:04.217Z,63.40
2018-04-18T22:49:31.244Z,63.70
2018-04-18T22:51:58.252Z,64.30
2018-04-18T22:54:26.006Z,64.80
2018-04-18T22:56:53.040Z,64.70
2018-04-18T22:59:20.035Z,65.10
2018-04-18T23:01:47.054Z,65.20
2018-04-18T23:04:14.055Z,65.60
2018-04-18T23:06:41.059Z,66.00
2018-04-18T23:09:08.060Z,66.30
2018-04-18T23:11:35.078Z,66.40
2018-04-18T23:14:02.071Z,66.70
2018-04-18T23:16:29.073Z,66.70
2018-04-18T23:18:56.134Z,66.80
2018-04-18T23:21:23.192Z,66.80
2018-04-18T23:23:50.234Z,66.70
2018-04-18T23:26:17.289Z,67.00
2018-04-18T23:28:44.324Z,67.20
2018-04-18T23:31:11.335Z,66.90
2018-04-18T23:33:38.304Z,67.30
2018-04-18T23:36:05.335Z,67.50
2018-04-18T23:38:32.369Z,67.90
2018-04-18T23:41:00.128Z,68.00
2018-04-18T23:43:27.888Z,68.20
2018-04-18T23:45:55.629Z,67.90
2018-04-18T23:48:22.647Z,67.90
2018-04-18T23:50:49.648Z,68.00
2018-04-18T23:53:17.421Z,68.00
2018-04-18T23:55:45.202Z,68.30
2018-04-18T23:58:12.224Z,68.30
